Yass Linton Hostel, New South Wales

8:48 AM AEST on September 02, 2015 (GMT +1000)
Merryville, Australia | | Change Station
CLOSE
Current Station
Personal Weather Station
Location: Murrumbateman, NEW SOUTH WALES
Elevation: 1916 ft
Nearby Weather Stations

Elev 1916 ft 34.97 °S, 149.00 °E | Updated 9 seconds ago

Mostly Cloudy
Mostly Cloudy
42.1 °F
Feels Like 42 °F
N
0.4
Wind Variable Wind from WNW
Gusts 2.5 mph

Today
High -- | Low -- °F
--% Chance of Precip.
Yesterday
High -- | Low -- °F
Precip. -- in
6:23 AM 5:45 PM
Waning Gibbous, 86% visible
Pressure 30.04 in
Visibility 6.2 miles
Clouds Few 500 ft
Mostly Cloudy 16000 ft
Windchill 42 °F
Dew Point 40 °F
Humidity 94%
Rainfall 0.01 in
Snow Depth Not available.
UV 1.0 out of 12
Pollen Not available.
Air Quality Not available.
Flu Activity Not available.
SPECI YSCB 012230Z 29001KT 9999 VCFG FEW005 BKN160 04/03 Q1017
Pressure 30.04 in
Visibility 6.2 miles
Clouds Few 500 ft
Mostly Cloudy 16000 ft
Windchill 42 °F
Dew Point 40 °F
Humidity 94%
Rainfall 0.01 in
Snow Depth Not available.
UV 1.0 out of 12
Pollen Not available.
Air Quality Not available.
Flu Activity Not available.
SPECI YSCB 012230Z 29001KT 9999 VCFG FEW005 BKN160 04/03 Q1017

10-Day Weather Forecast

×

Almanac

Astronomy

Sep. 02, 2015 Rise Set
Actual Time
Civil Twilight
Nautical Twilight
Astronomical Twilight
Moon
Length of Visible Light
Length of Day
Tomorrow will be .
, % of the Moon is Illuminated

Today's Extremes

Country Highs Country Lows

Community

WunderPhotos

Upload Photos

1,851,634 photos uploaded!

WunderBlogs® & News

Nearby

Air Quality

  Air Quality AQ Index Pollutant
Not available.

Snow Depth

Station Depth Elevation

Earthquake Activity

City Distance Mag. Time & Date
Minimum magnitude displayed is 2.5.

Coastal Water Temperatures

Place Temperature

Stations

Nearby Weather Stations

Station Location Temp. Windchill Dew Point Humidity Wind Precip. Elev Updated Type